createdAt,value
2022-08-11T00:02:02.217Z,18.30
2022-08-11T00:04:37.405Z,18.20
2022-08-11T00:07:07.931Z,18.10
2022-08-11T00:09:39.907Z,18.10
2022-08-11T00:12:14.733Z,18.10
2022-08-11T00:14:45.491Z,18.10
2022-08-11T00:17:15.863Z,18.10
2022-08-11T00:20:15.055Z,18.00
2022-08-11T00:22:37.394Z,17.90
2022-08-11T00:25:11.629Z,17.80
2022-08-11T00:27:41.699Z,17.80
2022-08-11T00:30:13.537Z,17.70
2022-08-11T00:32:44.516Z,17.70
2022-08-11T00:35:55.215Z,17.70
2022-08-11T00:38:04.938Z,17.70
2022-08-11T00:40:39.625Z,17.80
2022-08-11T00:43:20.198Z,17.70
2022-08-11T00:46:10.252Z,17.70
2022-08-11T00:48:50.695Z,17.60
2022-08-11T00:51:27.085Z,17.40
2022-08-11T00:54:39.105Z,17.30
2022-08-11T00:57:37.628Z,17.10
2022-08-11T01:00:24.632Z,17.10
2022-08-11T01:03:19.086Z,16.90
2022-08-11T01:06:01.527Z,16.90
2022-08-11T01:09:04.659Z,16.90
2022-08-11T01:12:05.142Z,16.90
2022-08-11T01:15:02.908Z,16.90
2022-08-11T01:18:10.934Z,16.90
2022-08-11T01:21:13.718Z,16.90
2022-08-11T01:24:19.240Z,17.00
2022-08-11T01:27:22.956Z,17.00
2022-08-11T01:30:39.262Z,17.00
2022-08-11T01:33:44.471Z,16.90
2022-08-11T01:37:01.093Z,16.90
2022-08-11T01:40:08.245Z,16.80
2022-08-11T01:43:29.092Z,16.70
2022-08-11T01:46:02.765Z,16.70
2022-08-11T01:48:45.373Z,16.80
2022-08-11T01:51:25.798Z,16.60
2022-08-11T01:54:04.162Z,16.60
2022-08-11T01:56:57.432Z,16.40
2022-08-11T01:59:30.651Z,16.40
2022-08-11T02:02:21.641Z,16.30
2022-08-11T02:04:58.465Z,16.50
2022-08-11T02:07:34.284Z,16.20
2022-08-11T02:10:38.264Z,16.20
2022-08-11T02:13:16.392Z,16.10
2022-08-11T02:15:51.579Z,16.00
2022-08-11T02:18:48.170Z,15.80
2022-08-11T02:21:42.080Z,15.70
2022-08-11T02:24:18.904Z,15.60
2022-08-11T02:26:55.597Z,15.60
2022-08-11T02:29:31.021Z,15.50
2022-08-11T02:32:30.554Z,15.70
2022-08-11T02:35:19.116Z,15.50
2022-08-11T02:37:56.706Z,15.60
2022-08-11T02:40:32.545Z,15.50
2022-08-11T02:43:12.275Z,15.50
2022-08-11T02:45:54.054Z,15.50
2022-08-11T02:48:52.429Z,15.60
2022-08-11T02:51:30.169Z,15.60
2022-08-11T02:54:07.257Z,15.70
2022-08-11T02:56:52.218Z,15.70
2022-08-11T02:59:52.199Z,15.80
2022-08-11T03:02:47.837Z,15.80
2022-08-11T03:05:37.815Z,15.80
2022-08-11T03:08:24.575Z,15.70
2022-08-11T03:11:20.252Z,15.60
2022-08-11T03:14:14.226Z,15.70
2022-08-11T03:16:56.030Z,15.70
2022-08-11T03:19:31.249Z,15.70
2022-08-11T03:22:06.925Z,15.70
2022-08-11T03:24:59.169Z,15.50
2022-08-11T03:27:37.913Z,15.30
2022-08-11T03:30:15.461Z,15.20
2022-08-11T03:33:09.150Z,15.20
2022-08-11T03:35:43.618Z,15.20
2022-08-11T03:38:16.363Z,15.10
2022-08-11T03:41:59.295Z,15.10
2022-08-11T03:44:26.233Z,15.10
2022-08-11T03:47:08.592Z,15.00
2022-08-11T03:49:50.653Z,15.10
2022-08-11T03:52:28.876Z,15.00
2022-08-11T03:55:04.726Z,14.80
2022-08-11T03:58:06.725Z,14.80
2022-08-11T04:00:59.294Z,14.80
2022-08-11T04:03:52.308Z,14.90
2022-08-11T04:06:49.619Z,15.00
2022-08-11T04:10:01.900Z,15.00
2022-08-11T04:12:47.107Z,15.10
2022-08-11T04:15:57.646Z,15.20
2022-08-11T04:19:01.349Z,15.30
2022-08-11T04:22:07.222Z,15.20
2022-08-11T04:25:10.915Z,15.20
2022-08-11T04:28:28.535Z,15.10
2022-08-11T04:31:11.985Z,15.00
2022-08-11T04:34:01.229Z,14.90
2022-08-11T04:37:12.540Z,14.80
2022-08-11T04:40:12.304Z,14.80
2022-08-11T04:43:25.176Z,14.70
2022-08-11T04:46:14.638Z,14.60
2022-08-11T04:49:36.514Z,14.50
2022-08-11T04:52:55.756Z,14.50
2022-08-11T04:56:05.136Z,14.50
2022-08-11T05:02:59.732Z,14.60
2022-08-11T05:05:56.797Z,14.80
2022-08-11T05:08:58.291Z,15.00
2022-08-11T05:12:20.212Z,15.30
2022-08-11T05:15:09.750Z,15.60
2022-08-11T05:17:59.690Z,16.00
2022-08-11T05:20:46.282Z,16.10
2022-08-11T05:23:38.731Z,16.30
2022-08-11T05:26:46.735Z,16.50
2022-08-11T05:29:53.869Z,16.60
2022-08-11T05:32:41.142Z,16.90
2022-08-11T05:35:10.776Z,17.20
2022-08-11T05:38:17.561Z,17.50
2022-08-11T05:41:13.205Z,17.80
2022-08-11T05:44:19.682Z,18.00
2022-08-11T05:47:10.235Z,18.60
2022-08-11T05:49:56.629Z,19.10
2022-08-11T05:52:44.954Z,19.30
2022-08-11T05:55:34.258Z,19.40
2022-08-11T05:58:06.985Z,19.40
2022-08-11T06:00:43.399Z,19.40
2022-08-11T06:03:21.415Z,19.20
2022-08-11T06:05:51.770Z,19.40
2022-08-11T06:08:31.001Z,19.60
2022-08-11T06:11:03.456Z,19.60
2022-08-11T06:13:32.501Z,19.80
2022-08-11T06:16:06.225Z,20.10
2022-08-11T06:18:38.281Z,20.30
2022-08-11T06:21:12.150Z,20.40
2022-08-11T06:23:42.383Z,20.50
2022-08-11T06:26:11.838Z,20.70
2022-08-11T06:28:45.095Z,20.90
2022-08-11T06:31:15.184Z,21.10
2022-08-11T06:33:57.040Z,21.20
2022-08-11T06:36:34.336Z,21.10
2022-08-11T06:39:13.093Z,21.10
2022-08-11T06:41:48.312Z,20.80
2022-08-11T06:44:23.423Z,20.80
2022-08-11T06:46:54.669Z,20.90
2022-08-11T06:49:51.622Z,21.00
2022-08-11T06:52:35.330Z,21.10
2022-08-11T06:55:55.664Z,21.20
2022-08-11T06:58:16.067Z,21.40
2022-08-11T07:00:45.112Z,21.30
2022-08-11T07:03:17.674Z,21.60
2022-08-11T07:05:53.048Z,22.10
2022-08-11T07:09:23.686Z,22.50
2022-08-11T07:12:56.501Z,22.70
2022-08-11T07:16:12.246Z,23.30
2022-08-11T07:18:53.204Z,23.60
2022-08-11T07:22:01.081Z,23.80
2022-08-11T07:25:08.669Z,23.80
2022-08-11T07:28:01.160Z,23.90
2022-08-11T07:30:30.297Z,24.20
2022-08-11T07:33:02.005Z,24.50
2022-08-11T07:35:35.212Z,24.70
2022-08-11T07:38:09.890Z,24.80
2022-08-11T07:40:38.446Z,24.70
2022-08-11T07:43:08.049Z,24.90
2022-08-11T07:45:53.780Z,25.00
2022-08-11T07:48:39.795Z,25.20
2022-08-11T07:51:26.013Z,25.10
2022-08-11T07:54:03.150Z,25.30
2022-08-11T07:56:54.688Z,25.50
2022-08-11T08:00:03.316Z,25.70
2022-08-11T08:02:49.967Z,25.90
2022-08-11T08:05:37.159Z,26.10
2022-08-11T08:08:25.760Z,26.20
2022-08-11T08:11:15.032Z,26.40
2022-08-11T08:14:00.986Z,26.40
2022-08-11T08:16:49.137Z,26.20
2022-08-11T08:19:20.658Z,26.30
2022-08-11T08:21:49.524Z,26.40
2022-08-11T08:24:20.086Z,26.50
2022-08-11T08:26:59.700Z,26.60
2022-08-11T08:29:46.934Z,26.90
2022-08-11T08:32:17.395Z,27.00
2022-08-11T08:34:47.026Z,27.00
2022-08-11T08:37:46.605Z,27.10
2022-08-11T08:40:09.359Z,27.30
2022-08-11T08:42:45.296Z,27.50
2022-08-11T08:45:18.439Z,27.60
2022-08-11T08:47:53.088Z,27.80
2022-08-11T08:50:27.709Z,27.60
2022-08-11T08:52:59.410Z,27.80
2022-08-11T08:55:29.792Z,28.10
2022-08-11T08:58:01.295Z,28.10
2022-08-11T09:00:40.844Z,28.10
2022-08-11T09:03:36.673Z,28.30
2022-08-11T09:05:58.505Z,28.20
2022-08-11T09:08:27.520Z,28.10
2022-08-11T09:11:16.057Z,28.30
2022-08-11T09:14:04.718Z,28.50
2022-08-11T09:19:03.878Z,29.00
2022-08-11T09:21:48.510Z,29.00
2022-08-11T09:24:35.736Z,28.70
2022-08-11T09:27:09.596Z,28.60
2022-08-11T09:29:39.800Z,28.60
2022-08-11T09:32:08.853Z,28.80
2022-08-11T09:34:38.311Z,28.80
2022-08-11T09:37:53.328Z,28.90
2022-08-11T09:40:30.998Z,29.00
2022-08-11T09:43:25.768Z,29.20
2022-08-11T09:45:56.838Z,29.50
2022-08-11T09:48:26.960Z,29.50
2022-08-11T09:50:57.223Z,29.50
2022-08-11T09:53:36.808Z,29.50
2022-08-11T09:56:21.870Z,29.60
2022-08-11T09:58:50.904Z,29.50
2022-08-11T10:01:32.752Z,29.40
2022-08-11T10:04:04.914Z,29.60
2022-08-11T10:06:56.318Z,29.80
2022-08-11T10:09:26.119Z,29.80
2022-08-11T10:11:59.282Z,29.60
2022-08-11T10:14:46.827Z,29.10
2022-08-11T10:17:18.541Z,28.90
2022-08-11T10:20:04.047Z,29.10
2022-08-11T10:22:50.920Z,29.30
2022-08-11T10:25:36.964Z,29.50
2022-08-11T10:28:28.747Z,29.20
2022-08-11T10:31:14.814Z,29.10
2022-08-11T10:34:03.750Z,29.20
2022-08-11T10:36:33.869Z,29.40
2022-08-11T10:39:06.686Z,29.60
2022-08-11T10:42:08.526Z,29.80
2022-08-11T10:44:41.248Z,30.10
2022-08-11T10:47:29.374Z,30.30
2022-08-11T10:50:31.056Z,30.30
2022-08-11T10:53:18.677Z,30.40
2022-08-11T10:58:49.580Z,29.50
2022-08-11T11:01:23.533Z,29.50
2022-08-11T11:03:53.834Z,29.90
2022-08-11T11:06:29.832Z,30.20
2022-08-11T11:09:04.502Z,30.40
2022-08-11T11:11:54.015Z,30.50
2022-08-11T11:14:46.121Z,30.60
2022-08-11T11:17:35.836Z,30.40
2022-08-11T11:20:07.547Z,30.70
2022-08-11T11:22:40.076Z,30.60
2022-08-11T11:25:26.283Z,30.30
2022-08-11T11:28:18.175Z,29.80
2022-08-11T11:30:58.326Z,29.90
2022-08-11T11:34:06.686Z,30.00
2022-08-11T11:36:32.658Z,30.10
2022-08-11T11:39:02.444Z,30.40
2022-08-11T11:41:30.975Z,30.70
2022-08-11T11:44:01.518Z,30.80
2022-08-11T11:46:31.713Z,30.90
2022-08-11T11:49:15.792Z,30.90
2022-08-11T11:51:45.837Z,30.80
2022-08-11T11:54:22.290Z,30.70
2022-08-11T11:56:53.349Z,30.70
2022-08-11T11:59:51.410Z,30.80
2022-08-11T12:02:19.585Z,31.00
2022-08-11T12:04:48.926Z,30.90
2022-08-11T12:07:35.494Z,30.90
2022-08-11T12:10:08.412Z,30.80
2022-08-11T12:12:54.458Z,30.60
2022-08-11T12:16:04.307Z,30.80
2022-08-11T12:18:12.762Z,31.10
2022-08-11T12:20:41.224Z,31.30
2022-08-11T12:23:27.797Z,31.30
2022-08-11T12:26:26.883Z,31.50
2022-08-11T12:28:58.612Z,31.60
2022-08-11T12:31:26.858Z,31.60
2022-08-11T12:33:56.093Z,31.50
2022-08-11T12:36:24.572Z,31.40
2022-08-11T12:38:54.135Z,31.40
2022-08-11T12:41:42.019Z,31.40
2022-08-11T12:44:29.713Z,31.20
2022-08-11T12:47:00.783Z,31.20
2022-08-11T12:49:49.674Z,31.20
2022-08-11T12:55:38.772Z,31.30
2022-08-11T12:58:19.303Z,31.20
2022-08-11T13:01:06.189Z,31.10
2022-08-11T13:03:58.879Z,31.30
2022-08-11T13:06:28.121Z,31.40
2022-08-11T13:09:01.500Z,31.20
2022-08-11T13:11:55.601Z,31.30
2022-08-11T13:14:27.154Z,31.30
2022-08-11T13:17:13.742Z,31.20
2022-08-11T13:19:47.547Z,30.90
2022-08-11T13:22:18.744Z,30.70
2022-08-11T13:24:48.105Z,30.50
2022-08-11T13:27:19.292Z,30.50
2022-08-11T13:29:50.035Z,30.60
2022-08-11T13:32:21.471Z,30.90
2022-08-11T13:34:49.962Z,31.00
2022-08-11T13:37:20.877Z,31.10
2022-08-11T13:40:10.545Z,31.00
2022-08-11T13:42:40.209Z,30.90
2022-08-11T13:45:11.237Z,30.80
2022-08-11T13:47:43.839Z,31.00
2022-08-11T13:50:13.507Z,31.10
2022-08-11T13:52:42.694Z,31.20
2022-08-11T13:55:45.183Z,31.10
2022-08-11T13:58:20.736Z,31.20
2022-08-11T14:01:01.716Z,31.20
2022-08-11T14:04:29.151Z,31.30
2022-08-11T14:06:42.551Z,31.30
2022-08-11T14:09:12.157Z,31.40
2022-08-11T14:12:23.901Z,31.30
2022-08-11T14:14:56.202Z,31.20
2022-08-11T14:17:48.438Z,31.10
2022-08-11T14:20:38.306Z,31.00
2022-08-11T14:23:05.523Z,30.90
2022-08-11T14:26:01.261Z,30.90
2022-08-11T14:28:31.164Z,31.00
2022-08-11T14:31:01.981Z,31.10
2022-08-11T14:33:58.606Z,31.00
2022-08-11T14:36:23.583Z,30.80
2022-08-11T14:38:53.918Z,30.60
2022-08-11T14:42:11.399Z,30.60
2022-08-11T14:44:47.409Z,30.60
2022-08-11T14:47:23.994Z,30.60
2022-08-11T14:50:09.380Z,30.70
2022-08-11T14:52:48.715Z,30.60
2022-08-11T14:55:35.823Z,30.70
2022-08-11T14:58:04.605Z,30.80
2022-08-11T15:00:35.250Z,30.80
2022-08-11T15:03:13.950Z,30.80
2022-08-11T15:05:57.506Z,30.70
2022-08-11T15:08:48.855Z,30.60
2022-08-11T15:11:36.288Z,30.40
2022-08-11T15:14:07.231Z,30.40
2022-08-11T15:16:54.497Z,30.30
2022-08-11T15:19:22.720Z,30.30
2022-08-11T15:22:10.049Z,30.40
2022-08-11T15:24:38.422Z,30.30
2022-08-11T15:27:30.132Z,30.20
2022-08-11T15:30:32.556Z,30.30
2022-08-11T15:33:24.449Z,30.20
2022-08-11T15:36:11.848Z,30.10
2022-08-11T15:38:47.305Z,30.10
2022-08-11T15:41:36.247Z,30.10
2022-08-11T15:44:51.403Z,30.00
2022-08-11T15:47:18.043Z,30.00
2022-08-11T15:50:11.271Z,30.00
2022-08-11T15:52:46.740Z,29.80
2022-08-11T15:55:19.104Z,29.80
2022-08-11T15:58:06.781Z,29.70
2022-08-11T16:00:56.862Z,29.80
2022-08-11T16:04:07.891Z,29.80
2022-08-11T16:06:40.507Z,29.70
2022-08-11T16:09:18.406Z,29.70
2022-08-11T16:11:50.349Z,29.60
2022-08-11T16:14:37.617Z,29.50
2022-08-11T16:17:08.068Z,29.40
2022-08-11T16:19:38.332Z,29.30
2022-08-11T16:22:10.037Z,29.20
2022-08-11T16:27:05.337Z,29.20
2022-08-11T16:27:36.746Z,29.20
2022-08-11T16:30:06.953Z,29.10
2022-08-11T16:32:37.474Z,29.00
2022-08-11T16:35:26.818Z,29.00
2022-08-11T16:38:14.239Z,29.00
2022-08-11T16:40:43.658Z,29.00
2022-08-11T16:43:34.426Z,29.00
2022-08-11T16:46:23.099Z,28.90
2022-08-11T16:48:54.111Z,28.80
2022-08-11T16:51:23.589Z,28.60
2022-08-11T16:54:04.999Z,28.60
2022-08-11T16:56:37.050Z,28.60
2022-08-11T16:59:16.202Z,28.40
2022-08-11T17:01:48.284Z,28.40
2022-08-11T17:04:39.703Z,28.40
2022-08-11T17:07:42.231Z,28.40
2022-08-11T17:10:50.402Z,28.40
2022-08-11T17:13:27.950Z,28.40
2022-08-11T17:16:08.590Z,28.20
2022-08-11T17:18:44.259Z,28.10
2022-08-11T17:21:26.248Z,28.00
2022-08-11T17:23:56.997Z,28.00
2022-08-11T17:26:52.796Z,28.00
2022-08-11T17:29:25.756Z,28.00
2022-08-11T17:32:13.886Z,28.00
2022-08-11T17:35:01.900Z,28.00
2022-08-11T17:37:33.149Z,27.90
2022-08-11T17:40:03.569Z,27.90
2022-08-11T17:42:51.477Z,27.80
2022-08-11T17:45:38.323Z,27.80
2022-08-11T17:48:26.481Z,27.80
2022-08-11T17:50:56.424Z,27.80
2022-08-11T17:54:02.077Z,27.60
2022-08-11T17:56:52.766Z,27.50
2022-08-11T17:59:39.129Z,27.50
2022-08-11T18:02:35.081Z,27.40
2022-08-11T18:05:12.333Z,27.40
2022-08-11T18:08:00.265Z,27.40
2022-08-11T18:10:48.289Z,27.30
2022-08-11T18:13:34.587Z,27.30
2022-08-11T18:16:20.162Z,27.20
2022-08-11T18:19:05.777Z,27.30
2022-08-11T18:22:11.198Z,27.20
2022-08-11T18:25:05.135Z,27.20
2022-08-11T18:27:53.430Z,27.00
2022-08-11T18:30:39.380Z,26.90
2022-08-11T18:36:39.387Z,26.50
2022-08-11T18:39:31.690Z,26.50
2022-08-11T18:42:28.897Z,26.20
2022-08-11T18:45:18.836Z,26.00
2022-08-11T18:48:07.296Z,25.90
2022-08-11T18:51:00.653Z,25.60
2022-08-11T18:54:09.059Z,25.50
2022-08-11T18:56:55.891Z,25.50
2022-08-11T18:59:46.000Z,25.30
2022-08-11T19:02:33.130Z,25.20
2022-08-11T19:06:37.302Z,25.10
2022-08-11T19:08:41.830Z,25.20
2022-08-11T19:11:29.684Z,25.00
2022-08-11T19:14:18.017Z,24.80
2022-08-11T19:17:04.538Z,24.80
2022-08-11T19:19:53.015Z,24.80
2022-08-11T19:22:40.099Z,24.70
2022-08-11T19:25:27.229Z,24.60
2022-08-11T19:28:13.772Z,24.60
2022-08-11T19:31:01.483Z,24.40
2022-08-11T19:34:00.446Z,24.30
2022-08-11T19:36:55.180Z,24.20
2022-08-11T19:39:41.245Z,24.20
2022-08-11T19:42:28.105Z,24.20
2022-08-11T19:45:14.659Z,24.00
2022-08-11T19:48:28.471Z,23.90
2022-08-11T19:51:10.395Z,23.80
2022-08-11T19:53:56.712Z,23.70
2022-08-11T19:56:42.756Z,23.70
2022-08-11T19:59:29.194Z,23.60
2022-08-11T20:02:15.128Z,23.50
2022-08-11T20:05:02.649Z,23.40
2022-08-11T20:07:50.053Z,23.30
2022-08-11T20:10:39.983Z,23.20
2022-08-11T20:13:27.639Z,23.20
2022-08-11T20:16:14.718Z,23.10
2022-08-11T20:19:01.947Z,22.90
2022-08-11T20:21:49.179Z,23.00
2022-08-11T20:24:36.696Z,22.80
2022-08-11T20:27:25.638Z,22.60
2022-08-11T20:30:12.581Z,22.60
2022-08-11T20:32:59.123Z,22.50
2022-08-11T20:35:45.838Z,22.30
2022-08-11T20:38:33.857Z,22.20
2022-08-11T20:41:21.271Z,22.10
2022-08-11T20:44:09.595Z,22.00
2022-08-11T20:46:57.326Z,22.10
2022-08-11T20:49:53.652Z,22.00
2022-08-11T20:52:47.178Z,21.90
2022-08-11T20:55:51.718Z,21.70
2022-08-11T21:01:46.459Z,21.60
2022-08-11T21:04:32.539Z,21.60
2022-08-11T21:07:28.167Z,21.50
2022-08-11T21:10:23.142Z,21.40
2022-08-11T21:13:26.534Z,21.30
2022-08-11T21:16:26.448Z,21.20
2022-08-11T21:19:18.936Z,21.20
2022-08-11T21:22:39.580Z,21.30
2022-08-11T21:25:29.815Z,21.00
2022-08-11T21:28:21.199Z,20.80
2022-08-11T21:31:11.906Z,20.80
2022-08-11T21:33:58.814Z,20.80
2022-08-11T21:36:44.952Z,20.80
2022-08-11T21:39:35.247Z,20.60
2022-08-11T21:42:23.221Z,20.40
2022-08-11T21:45:12.678Z,20.40
2022-08-11T21:48:01.142Z,20.40
2022-08-11T21:50:47.579Z,20.40
2022-08-11T21:53:33.691Z,20.40
2022-08-11T21:56:20.385Z,20.40
2022-08-11T21:59:07.520Z,20.30
2022-08-11T22:01:55.252Z,20.20
2022-08-11T22:04:41.604Z,20.20
2022-08-11T22:07:28.456Z,19.90
2022-08-11T22:10:40.209Z,19.80
2022-08-11T22:13:23.106Z,19.80
2022-08-11T22:16:09.082Z,19.70
2022-08-11T22:18:56.888Z,19.70
2022-08-11T22:22:03.447Z,19.60
2022-08-11T22:24:50.683Z,19.50
2022-08-11T22:27:36.310Z,19.40
2022-08-11T22:30:22.295Z,19.40
2022-08-11T22:33:08.557Z,19.20
2022-08-11T22:35:58.364Z,19.30
2022-08-11T22:38:45.321Z,19.30
2022-08-11T22:41:31.416Z,19.20
2022-08-11T22:44:17.270Z,19.20
2022-08-11T22:47:03.750Z,19.20
2022-08-11T22:49:57.425Z,19.20
2022-08-11T22:52:46.491Z,19.10
2022-08-11T22:55:32.952Z,19.00
2022-08-11T22:58:20.482Z,19.00
2022-08-11T23:01:07.168Z,18.80
2022-08-11T23:03:53.659Z,18.80
2022-08-11T23:06:40.250Z,18.70
2022-08-11T23:09:27.981Z,18.70
2022-08-11T23:12:13.875Z,18.70
2022-08-11T23:15:00.401Z,18.60
2022-08-11T23:17:46.834Z,18.50
2022-08-11T23:20:39.561Z,18.50
2022-08-11T23:23:30.089Z,18.40
2022-08-11T23:26:18.707Z,18.30
2022-08-11T23:29:05.376Z,18.10
2022-08-11T23:31:53.646Z,18.10
2022-08-11T23:35:02.548Z,18.00
2022-08-11T23:37:46.508Z,17.80
2022-08-11T23:40:32.389Z,17.70
2022-08-11T23:43:19.510Z,17.70
2022-08-11T23:46:04.941Z,17.60
2022-08-11T23:48:51.545Z,17.70
2022-08-11T23:51:40.876Z,17.80
2022-08-11T23:54:27.543Z,17.80
2022-08-11T23:57:13.338Z,17.80
2022-08-11T23:59:59.928Z,17.70
